sensor_id;sensor_type;location;lat;lon;timestamp;temperature;humidity
49465;DHT22;35358;49.342;8.802;2023-01-05T00:01:02;10.60;99.90
49465;DHT22;35358;49.342;8.802;2023-01-05T00:03:28;10.60;99.90
49465;DHT22;35358;49.342;8.802;2023-01-05T00:06:01;10.60;99.90
49465;DHT22;35358;49.342;8.802;2023-01-05T00:08:31;10.60;99.90
49465;DHT22;35358;49.342;8.802;2023-01-05T00:11:09;10.60;99.90
49465;DHT22;35358;49.342;8.802;2023-01-05T00:13:53;10.50;99.90
49465;DHT22;35358;49.342;8.802;2023-01-05T00:16:40;10.50;99.90
49465;DHT22;35358;49.342;8.802;2023-01-05T00:19:27;10.50;99.90
49465;DHT22;35358;49.342;8.802;2023-01-05T00:22:15;10.50;99.90
49465;DHT22;35358;49.342;8.802;2023-01-05T00:27:28;10.50;99.90
49465;DHT22;35358;49.342;8.802;2023-01-05T00:29:57;10.50;99.90
49465;DHT22;35358;49.342;8.802;2023-01-05T00:32:23;10.50;99.90
49465;DHT22;35358;49.342;8.802;2023-01-05T00:34:53;10.60;99.90
49465;DHT22;35358;49.342;8.802;2023-01-05T00:37:24;10.60;99.90
49465;DHT22;35358;49.342;8.802;2023-01-05T00:39:53;10.60;99.90
49465;DHT22;35358;49.342;8.802;2023-01-05T00:42:19;10.60;99.90
49465;DHT22;35358;49.342;8.802;2023-01-05T00:44:47;10.60;99.90
49465;DHT22;35358;49.342;8.802;2023-01-05T00:47:15;10.60;99.90
49465;DHT22;35358;49.342;8.802;2023-01-05T00:49:43;10.70;99.90
49465;DHT22;35358;49.342;8.802;2023-01-05T00:52:09;10.70;99.90
49465;DHT22;35358;49.342;8.802;2023-01-05T00:54:37;10.60;99.90
49465;DHT22;35358;49.342;8.802;2023-01-05T00:57:05;10.60;99.90
49465;DHT22;35358;49.342;8.802;2023-01-05T00:59:31;10.60;99.90
49465;DHT22;35358;49.342;8.802;2023-01-05T01:01:59;10.70;99.90
49465;DHT22;35358;49.342;8.802;2023-01-05T01:04:25;10.70;99.90
49465;DHT22;35358;49.342;8.802;2023-01-05T01:06:51;10.70;99.90
49465;DHT22;35358;49.342;8.802;2023-01-05T01:09:16;10.70;99.90
49465;DHT22;35358;49.342;8.802;2023-01-05T01:11:44;10.70;99.90
49465;DHT22;35358;49.342;8.802;2023-01-05T01:14:11;10.70;99.90
49465;DHT22;35358;49.342;8.802;2023-01-05T01:16:37;10.70;99.90
49465;DHT22;35358;49.342;8.802;2023-01-05T01:19:02;10.70;99.90
49465;DHT22;35358;49.342;8.802;2023-01-05T01:21:28;10.70;99.90
49465;DHT22;35358;49.342;8.802;2023-01-05T01:24:00;10.80;99.90
49465;DHT22;35358;49.342;8.802;2023-01-05T01:26:26;10.70;99.90
49465;DHT22;35358;49.342;8.802;2023-01-05T01:28:51;10.70;99.90
49465;DHT22;35358;49.342;8.802;2023-01-05T01:31:19;10.70;99.90
49465;DHT22;35358;49.342;8.802;2023-01-05T01:33:45;10.70;99.90
49465;DHT22;35358;49.342;8.802;2023-01-05T01:36:15;10.70;99.90
49465;DHT22;35358;49.342;8.802;2023-01-05T01:38:41;10.70;99.90
49465;DHT22;35358;49.342;8.802;2023-01-05T01:41:10;10.80;99.90
49465;DHT22;35358;49.342;8.802;2023-01-05T01:43:47;10.70;99.90
49465;DHT22;35358;49.342;8.802;2023-01-05T01:46:15;10.70;99.90
49465;DHT22;35358;49.342;8.802;2023-01-05T01:49:07;10.70;99.90
49465;DHT22;35358;49.342;8.802;2023-01-05T01:51:37;10.70;99.90
49465;DHT22;35358;49.342;8.802;2023-01-05T01:54:08;10.70;99.90
49465;DHT22;35358;49.342;8.802;2023-01-05T01:57:01;10.70;99.90
49465;DHT22;35358;49.342;8.802;2023-01-05T01:59:26;10.70;99.90
49465;DHT22;35358;49.342;8.802;2023-01-05T02:01:57;10.70;99.90
49465;DHT22;35358;49.342;8.802;2023-01-05T02:04:24;10.70;99.90
49465;DHT22;35358;49.342;8.802;2023-01-05T02:06:51;10.80;99.90
49465;DHT22;35358;49.342;8.802;2023-01-05T02:09:17;10.80;99.90
49465;DHT22;35358;49.342;8.802;2023-01-05T02:12:53;10.80;99.90
49465;DHT22;35358;49.342;8.802;2023-01-05T02:15:34;10.70;99.90
49465;DHT22;35358;49.342;8.802;2023-01-05T02:29:28;10.70;99.90
49465;DHT22;35358;49.342;8.802;2023-01-05T02:32:36;10.60;99.90
49465;DHT22;35358;49.342;8.802;2023-01-05T02:40:21;10.60;99.90
49465;DHT22;35358;49.342;8.802;2023-01-05T02:42:51;10.60;99.90
49465;DHT22;35358;49.342;8.802;2023-01-05T02:45:21;10.60;99.90
49465;DHT22;35358;49.342;8.802;2023-01-05T02:47:46;10.50;99.90
49465;DHT22;35358;49.342;8.802;2023-01-05T02:50:19;10.50;99.90
49465;DHT22;35358;49.342;8.802;2023-01-05T02:55:17;10.60;99.90
49465;DHT22;35358;49.342;8.802;2023-01-05T02:58:09;10.50;99.90
49465;DHT22;35358;49.342;8.802;2023-01-05T03:00:43;10.60;99.90
49465;DHT22;35358;49.342;8.802;2023-01-05T03:06:15;10.60;99.90
49465;DHT22;35358;49.342;8.802;2023-01-05T03:08:54;10.60;99.90
49465;DHT22;35358;49.342;8.802;2023-01-05T03:11:20;10.60;99.90
49465;DHT22;35358;49.342;8.802;2023-01-05T03:16:39;10.70;99.90
49465;DHT22;35358;49.342;8.802;2023-01-05T03:19:12;10.70;99.90
49465;DHT22;35358;49.342;8.802;2023-01-05T03:22:00;10.70;99.90
49465;DHT22;35358;49.342;8.802;2023-01-05T03:24:44;10.70;99.90
49465;DHT22;35358;49.342;8.802;2023-01-05T03:27:29;10.80;99.90
49465;DHT22;35358;49.342;8.802;2023-01-05T03:30:14;10.80;99.90
49465;DHT22;35358;49.342;8.802;2023-01-05T03:33:13;10.80;99.90
49465;DHT22;35358;49.342;8.802;2023-01-05T03:36:00;10.90;99.90
49465;DHT22;35358;49.342;8.802;2023-01-05T03:38:39;10.90;99.90
49465;DHT22;35358;49.342;8.802;2023-01-05T03:41:09;10.90;99.90
49465;DHT22;35358;49.342;8.802;2023-01-05T03:43:38;11.00;99.90
49465;DHT22;35358;49.342;8.802;2023-01-05T03:46:15;11.00;99.90
49465;DHT22;35358;49.342;8.802;2023-01-05T03:48:41;11.00;99.90
49465;DHT22;35358;49.342;8.802;2023-01-05T03:51:10;11.00;99.90
49465;DHT22;35358;49.342;8.802;2023-01-05T03:53:35;11.00;99.90
49465;DHT22;35358;49.342;8.802;2023-01-05T03:56:01;11.00;99.90
49465;DHT22;35358;49.342;8.802;2023-01-05T03:58:27;11.00;99.90
49465;DHT22;35358;49.342;8.802;2023-01-05T04:00:52;11.00;99.90
49465;DHT22;35358;49.342;8.802;2023-01-05T04:03:18;11.00;99.90
49465;DHT22;35358;49.342;8.802;2023-01-05T04:05:43;11.00;99.90
49465;DHT22;35358;49.342;8.802;2023-01-05T04:08:09;10.90;99.90
49465;DHT22;35358;49.342;8.802;2023-01-05T04:10:34;10.80;99.90
49465;DHT22;35358;49.342;8.802;2023-01-05T04:13:00;10.70;99.90
49465;DHT22;35358;49.342;8.802;2023-01-05T04:15:28;10.70;99.90
49465;DHT22;35358;49.342;8.802;2023-01-05T04:17:53;10.70;99.90
49465;DHT22;35358;49.342;8.802;2023-01-05T04:20:19;10.70;99.90
49465;DHT22;35358;49.342;8.802;2023-01-05T04:22:45;10.60;99.90
49465;DHT22;35358;49.342;8.802;2023-01-05T04:25:13;10.70;99.90
49465;DHT22;35358;49.342;8.802;2023-01-05T04:27:43;10.70;99.90
49465;DHT22;35358;49.342;8.802;2023-01-05T04:30:11;10.70;99.90
49465;DHT22;35358;49.342;8.802;2023-01-05T04:32:37;10.80;99.90
49465;DHT22;35358;49.342;8.802;2023-01-05T04:35:03;10.80;99.90
49465;DHT22;35358;49.342;8.802;2023-01-05T04:37:28;10.70;99.90
49465;DHT22;35358;49.342;8.802;2023-01-05T04:39:54;10.80;99.90
49465;DHT22;35358;49.342;8.802;2023-01-05T04:42:20;10.80;99.90
49465;DHT22;35358;49.342;8.802;2023-01-05T04:44:45;10.80;99.90
49465;DHT22;35358;49.342;8.802;2023-01-05T04:47:13;10.80;99.90
49465;DHT22;35358;49.342;8.802;2023-01-05T04:49:43;10.90;99.90
49465;DHT22;35358;49.342;8.802;2023-01-05T04:52:09;10.90;99.90
49465;DHT22;35358;49.342;8.802;2023-01-05T04:54:34;10.80;99.90
49465;DHT22;35358;49.342;8.802;2023-01-05T04:57:00;10.90;99.90
49465;DHT22;35358;49.342;8.802;2023-01-05T04:59:27;10.90;99.90
49465;DHT22;35358;49.342;8.802;2023-01-05T05:01:53;10.90;99.90
49465;DHT22;35358;49.342;8.802;2023-01-05T05:04:18;10.90;99.90
49465;DHT22;35358;49.342;8.802;2023-01-05T05:06:49;10.90;99.90
49465;DHT22;35358;49.342;8.802;2023-01-05T05:09:16;10.90;99.90
49465;DHT22;35358;49.342;8.802;2023-01-05T05:11:42;11.00;99.90
49465;DHT22;35358;49.342;8.802;2023-01-05T05:14:07;11.00;99.90
49465;DHT22;35358;49.342;8.802;2023-01-05T05:16:35;11.00;99.90
49465;DHT22;35358;49.342;8.802;2023-01-05T05:19:03;11.00;99.90
49465;DHT22;35358;49.342;8.802;2023-01-05T05:21:31;10.90;99.90
49465;DHT22;35358;49.342;8.802;2023-01-05T05:23:56;10.90;99.90
49465;DHT22;35358;49.342;8.802;2023-01-05T05:26:24;10.90;99.90
49465;DHT22;35358;49.342;8.802;2023-01-05T05:28:56;10.80;99.90
49465;DHT22;35358;49.342;8.802;2023-01-05T05:31:24;10.70;99.90
49465;DHT22;35358;49.342;8.802;2023-01-05T05:33:49;10.70;99.90
49465;DHT22;35358;49.342;8.802;2023-01-05T05:36:15;10.60;99.90
49465;DHT22;35358;49.342;8.802;2023-01-05T05:38:42;10.70;99.90
49465;DHT22;35358;49.342;8.802;2023-01-05T05:41:10;10.60;99.90
49465;DHT22;35358;49.342;8.802;2023-01-05T05:43:36;10.60;99.90
49465;DHT22;35358;49.342;8.802;2023-01-05T05:46:02;10.60;99.90
49465;DHT22;35358;49.342;8.802;2023-01-05T05:48:30;10.60;99.90
49465;DHT22;35358;49.342;8.802;2023-01-05T05:50:57;10.60;99.90
49465;DHT22;35358;49.342;8.802;2023-01-05T05:53:30;10.60;99.90
49465;DHT22;35358;49.342;8.802;2023-01-05T05:55:56;10.60;99.90
49465;DHT22;35358;49.342;8.802;2023-01-05T05:58:21;10.70;99.90
49465;DHT22;35358;49.342;8.802;2023-01-05T06:00:49;10.70;99.90
49465;DHT22;35358;49.342;8.802;2023-01-05T06:03:19;10.60;99.90
49465;DHT22;35358;49.342;8.802;2023-01-05T06:05:45;10.70;99.90
49465;DHT22;35358;49.342;8.802;2023-01-05T06:08:11;10.70;99.90
49465;DHT22;35358;49.342;8.802;2023-01-05T06:10:38;10.80;99.90
49465;DHT22;35358;49.342;8.802;2023-01-05T06:13:04;10.80;99.90
49465;DHT22;35358;49.342;8.802;2023-01-05T06:15:32;10.70;99.90
49465;DHT22;35358;49.342;8.802;2023-01-05T06:18:00;10.70;99.90
49465;DHT22;35358;49.342;8.802;2023-01-05T06:20:28;10.80;99.90
49465;DHT22;35358;49.342;8.802;2023-01-05T06:22:56;10.80;99.90
49465;DHT22;35358;49.342;8.802;2023-01-05T06:25:22;10.80;99.90
49465;DHT22;35358;49.342;8.802;2023-01-05T06:27:47;10.90;99.90
49465;DHT22;35358;49.342;8.802;2023-01-05T06:30:13;10.80;99.90
49465;DHT22;35358;49.342;8.802;2023-01-05T06:32:41;10.90;99.90
49465;DHT22;35358;49.342;8.802;2023-01-05T06:35:09;10.80;99.90
49465;DHT22;35358;49.342;8.802;2023-01-05T06:37:34;10.70;99.90
49465;DHT22;35358;49.342;8.802;2023-01-05T06:40:02;10.80;99.90
49465;DHT22;35358;49.342;8.802;2023-01-05T06:42:33;10.60;99.90
49465;DHT22;35358;49.342;8.802;2023-01-05T06:44:58;10.60;99.90
49465;DHT22;35358;49.342;8.802;2023-01-05T06:47:24;10.60;99.90
49465;DHT22;35358;49.342;8.802;2023-01-05T06:49:52;10.60;99.90
49465;DHT22;35358;49.342;8.802;2023-01-05T06:52:18;10.50;99.90
49465;DHT22;35358;49.342;8.802;2023-01-05T06:54:44;10.50;99.90
49465;DHT22;35358;49.342;8.802;2023-01-05T06:57:12;10.60;99.90
49465;DHT22;35358;49.342;8.802;2023-01-05T06:59:37;10.60;99.90
49465;DHT22;35358;49.342;8.802;2023-01-05T07:02:03;10.70;99.90
49465;DHT22;35358;49.342;8.802;2023-01-05T07:04:31;10.70;99.90
49465;DHT22;35358;49.342;8.802;2023-01-05T07:06:56;10.70;99.90
49465;DHT22;35358;49.342;8.802;2023-01-05T07:09:25;10.70;99.90
49465;DHT22;35358;49.342;8.802;2023-01-05T07:11:50;10.80;99.90
49465;DHT22;35358;49.342;8.802;2023-01-05T07:14:16;10.70;99.90
49465;DHT22;35358;49.342;8.802;2023-01-05T07:16:44;10.70;99.90
49465;DHT22;35358;49.342;8.802;2023-01-05T07:19:09;10.80;99.90
49465;DHT22;35358;49.342;8.802;2023-01-05T07:21:35;10.80;99.90
49465;DHT22;35358;49.342;8.802;2023-01-05T07:24:01;10.80;99.90
49465;DHT22;35358;49.342;8.802;2023-01-05T07:26:26;10.70;99.90
49465;DHT22;35358;49.342;8.802;2023-01-05T07:28:52;10.80;99.90
49465;DHT22;35358;49.342;8.802;2023-01-05T07:31:22;10.80;99.90
49465;DHT22;35358;49.342;8.802;2023-01-05T07:33:50;10.80;99.90
49465;DHT22;35358;49.342;8.802;2023-01-05T07:36:15;10.80;99.90
49465;DHT22;35358;49.342;8.802;2023-01-05T07:38:41;10.80;99.90
49465;DHT22;35358;49.342;8.802;2023-01-05T07:41:07;10.80;99.90
49465;DHT22;35358;49.342;8.802;2023-01-05T07:43:37;10.80;99.90
49465;DHT22;35358;49.342;8.802;2023-01-05T07:46:03;10.80;99.90
49465;DHT22;35358;49.342;8.802;2023-01-05T07:48:29;10.70;99.90
49465;DHT22;35358;49.342;8.802;2023-01-05T07:51:04;10.70;99.90
49465;DHT22;35358;49.342;8.802;2023-01-05T07:53:31;10.70;99.90
49465;DHT22;35358;49.342;8.802;2023-01-05T07:55:58;10.70;99.90
49465;DHT22;35358;49.342;8.802;2023-01-05T07:58:25;10.70;99.90
49465;DHT22;35358;49.342;8.802;2023-01-05T08:00:53;10.70;99.90
49465;DHT22;35358;49.342;8.802;2023-01-05T08:03:21;10.70;99.90
49465;DHT22;35358;49.342;8.802;2023-01-05T08:05:47;10.80;99.90
49465;DHT22;35358;49.342;8.802;2023-01-05T08:08:13;10.90;99.90
49465;DHT22;35358;49.342;8.802;2023-01-05T08:10:41;10.90;99.90
49465;DHT22;35358;49.342;8.802;2023-01-05T08:13:08;10.90;99.90
49465;DHT22;35358;49.342;8.802;2023-01-05T08:15:54;11.00;99.90
49465;DHT22;35358;49.342;8.802;2023-01-05T08:18:23;11.00;99.90
49465;DHT22;35358;49.342;8.802;2023-01-05T08:20:59;11.10;99.90
49465;DHT22;35358;49.342;8.802;2023-01-05T08:23:29;11.10;99.90
49465;DHT22;35358;49.342;8.802;2023-01-05T08:25:55;11.10;99.90
49465;DHT22;35358;49.342;8.802;2023-01-05T08:28:22;11.10;99.90
49465;DHT22;35358;49.342;8.802;2023-01-05T08:30:48;11.10;99.90
49465;DHT22;35358;49.342;8.802;2023-01-05T08:33:16;11.10;99.90
49465;DHT22;35358;49.342;8.802;2023-01-05T08:35:46;11.10;99.90
49465;DHT22;35358;49.342;8.802;2023-01-05T08:38:12;11.20;99.90
49465;DHT22;35358;49.342;8.802;2023-01-05T08:40:40;11.20;99.90
49465;DHT22;35358;49.342;8.802;2023-01-05T08:43:08;11.10;99.90
49465;DHT22;35358;49.342;8.802;2023-01-05T08:45:36;11.10;99.90
49465;DHT22;35358;49.342;8.802;2023-01-05T08:48:04;11.10;99.90
49465;DHT22;35358;49.342;8.802;2023-01-05T08:50:30;11.00;99.90
49465;DHT22;35358;49.342;8.802;2023-01-05T08:52:56;11.10;99.90
49465;DHT22;35358;49.342;8.802;2023-01-05T08:55:24;11.10;99.90
49465;DHT22;35358;49.342;8.802;2023-01-05T08:57:50;11.00;99.90
49465;DHT22;35358;49.342;8.802;2023-01-05T09:00:16;11.10;99.90
49465;DHT22;35358;49.342;8.802;2023-01-05T09:02:42;11.10;99.90
49465;DHT22;35358;49.342;8.802;2023-01-05T09:05:08;11.10;99.90
49465;DHT22;35358;49.342;8.802;2023-01-05T09:07:34;11.10;99.90
49465;DHT22;35358;49.342;8.802;2023-01-05T09:10:05;11.20;99.90
49465;DHT22;35358;49.342;8.802;2023-01-05T09:12:37;11.20;99.90
49465;DHT22;35358;49.342;8.802;2023-01-05T09:15:06;11.10;99.90
49465;DHT22;35358;49.342;8.802;2023-01-05T09:17:36;11.20;99.90
49465;DHT22;35358;49.342;8.802;2023-01-05T09:20:03;11.20;99.90
49465;DHT22;35358;49.342;8.802;2023-01-05T09:22:32;11.20;99.90
49465;DHT22;35358;49.342;8.802;2023-01-05T09:25:02;11.20;99.90
49465;DHT22;35358;49.342;8.802;2023-01-05T09:27:28;11.20;99.90
49465;DHT22;35358;49.342;8.802;2023-01-05T09:29:54;11.20;99.90
49465;DHT22;35358;49.342;8.802;2023-01-05T09:32:22;11.20;99.90
49465;DHT22;35358;49.342;8.802;2023-01-05T09:34:48;11.30;99.90
49465;DHT22;35358;49.342;8.802;2023-01-05T09:37:14;11.30;99.90
49465;DHT22;35358;49.342;8.802;2023-01-05T09:39:40;11.30;99.90
49465;DHT22;35358;49.342;8.802;2023-01-05T09:42:14;11.40;99.90
49465;DHT22;35358;49.342;8.802;2023-01-05T09:44:47;11.30;99.90
49465;DHT22;35358;49.342;8.802;2023-01-05T09:47:19;11.40;99.90
49465;DHT22;35358;49.342;8.802;2023-01-05T09:49:52;11.40;99.90
49465;DHT22;35358;49.342;8.802;2023-01-05T09:52:22;11.40;99.90
49465;DHT22;35358;49.342;8.802;2023-01-05T09:54:49;11.40;99.90
49465;DHT22;35358;49.342;8.802;2023-01-05T09:57:17;11.40;99.90
49465;DHT22;35358;49.342;8.802;2023-01-05T09:59:49;11.40;99.90
49465;DHT22;35358;49.342;8.802;2023-01-05T10:02:17;11.50;99.90
49465;DHT22;35358;49.342;8.802;2023-01-05T10:04:47;11.60;99.90
49465;DHT22;35358;49.342;8.802;2023-01-05T10:07:46;11.60;99.90
49465;DHT22;35358;49.342;8.802;2023-01-05T10:13:13;11.60;99.90
49465;DHT22;35358;49.342;8.802;2023-01-05T10:15:48;11.60;99.90
49465;DHT22;35358;49.342;8.802;2023-01-05T10:18:20;11.60;99.90
49465;DHT22;35358;49.342;8.802;2023-01-05T10:20:53;11.60;99.90
49465;DHT22;35358;49.342;8.802;2023-01-05T10:24:06;11.70;99.90
49465;DHT22;35358;49.342;8.802;2023-01-05T10:32:24;11.80;99.90
49465;DHT22;35358;49.342;8.802;2023-01-05T10:45:56;11.90;99.90
49465;DHT22;35358;49.342;8.802;2023-01-05T10:48:27;11.90;99.90
49465;DHT22;35358;49.342;8.802;2023-01-05T10:50:55;11.80;99.90
49465;DHT22;35358;49.342;8.802;2023-01-05T10:53:24;11.90;99.90
49465;DHT22;35358;49.342;8.802;2023-01-05T10:58:32;11.80;99.90
49465;DHT22;35358;49.342;8.802;2023-01-05T11:03:48;11.80;99.90
49465;DHT22;35358;49.342;8.802;2023-01-05T11:06:24;11.90;99.90
49465;DHT22;35358;49.342;8.802;2023-01-05T11:08:50;11.90;99.90
49465;DHT22;35358;49.342;8.802;2023-01-05T11:11:24;12.00;99.90
49465;DHT22;35358;49.342;8.802;2023-01-05T11:13:55;12.00;99.90
49465;DHT22;35358;49.342;8.802;2023-01-05T11:16:26;12.10;99.90
49465;DHT22;35358;49.342;8.802;2023-01-05T11:18:53;12.10;99.90
49465;DHT22;35358;49.342;8.802;2023-01-05T11:26:53;11.90;99.90
49465;DHT22;35358;49.342;8.802;2023-01-05T11:29:21;11.90;99.90
49465;DHT22;35358;49.342;8.802;2023-01-05T11:32:02;11.80;99.90
49465;DHT22;35358;49.342;8.802;2023-01-05T11:34:44;11.80;99.90
49465;DHT22;35358;49.342;8.802;2023-01-05T11:37:25;11.80;99.90
49465;DHT22;35358;49.342;8.802;2023-01-05T11:45:23;11.70;99.90
49465;DHT22;35358;49.342;8.802;2023-01-05T11:47:51;11.70;99.90
49465;DHT22;35358;49.342;8.802;2023-01-05T11:50:23;11.80;99.90
49465;DHT22;35358;49.342;8.802;2023-01-05T11:52:51;12.50;99.90
49465;DHT22;35358;49.342;8.802;2023-01-05T11:55:37;12.50;99.90
49465;DHT22;35358;49.342;8.802;2023-01-05T11:58:22;13.00;99.90
49465;DHT22;35358;49.342;8.802;2023-01-05T12:16:55;12.00;99.90
49465;DHT22;35358;49.342;8.802;2023-01-05T12:38:06;12.10;99.90
49465;DHT22;35358;49.342;8.802;2023-01-05T12:41:08;12.10;99.90
49465;DHT22;35358;49.342;8.802;2023-01-05T12:49:14;12.00;99.90
49465;DHT22;35358;49.342;8.802;2023-01-05T12:51:42;12.00;99.90
49465;DHT22;35358;49.342;8.802;2023-01-05T12:54:49;12.00;99.90
49465;DHT22;35358;49.342;8.802;2023-01-05T12:57:28;12.00;99.90
49465;DHT22;35358;49.342;8.802;2023-01-05T12:59:58;11.90;99.90
49465;DHT22;35358;49.342;8.802;2023-01-05T13:13:31;11.90;99.90
49465;DHT22;35358;49.342;8.802;2023-01-05T13:16:27;11.80;99.90
49465;DHT22;35358;49.342;8.802;2023-01-05T13:19:18;11.80;99.90
49465;DHT22;35358;49.342;8.802;2023-01-05T13:21:45;11.80;99.90
49465;DHT22;35358;49.342;8.802;2023-01-05T13:24:25;11.80;99.90
49465;DHT22;35358;49.342;8.802;2023-01-05T13:26:54;11.80;99.90
49465;DHT22;35358;49.342;8.802;2023-01-05T13:29:23;11.70;99.90
49465;DHT22;35358;49.342;8.802;2023-01-05T13:46:28;11.70;99.90
49465;DHT22;35358;49.342;8.802;2023-01-05T13:51:51;11.70;99.90
49465;DHT22;35358;49.342;8.802;2023-01-05T13:57:38;11.70;99.90
49465;DHT22;35358;49.342;8.802;2023-01-05T14:00:26;11.70;99.90
49465;DHT22;35358;49.342;8.802;2023-01-05T14:05:57;11.70;99.90
49465;DHT22;35358;49.342;8.802;2023-01-05T14:13:51;11.60;99.90
49465;DHT22;35358;49.342;8.802;2023-01-05T14:19:25;11.60;99.90
49465;DHT22;35358;49.342;8.802;2023-01-05T14:32:27;11.70;99.90
49465;DHT22;35358;49.342;8.802;2023-01-05T14:37:53;11.70;99.90
49465;DHT22;35358;49.342;8.802;2023-01-05T14:40:22;11.60;99.90
49465;DHT22;35358;49.342;8.802;2023-01-05T14:42:49;11.70;99.90
49465;DHT22;35358;49.342;8.802;2023-01-05T14:45:28;11.70;99.90
49465;DHT22;35358;49.342;8.802;2023-01-05T14:48:04;11.70;99.90
49465;DHT22;35358;49.342;8.802;2023-01-05T14:50:38;11.70;99.90
49465;DHT22;35358;49.342;8.802;2023-01-05T15:06:17;11.70;99.90
49465;DHT22;35358;49.342;8.802;2023-01-05T15:31:18;11.50;99.90
49465;DHT22;35358;49.342;8.802;2023-01-05T15:33:59;11.50;99.90
49465;DHT22;35358;49.342;8.802;2023-01-05T15:36:29;11.50;99.90
49465;DHT22;35358;49.342;8.802;2023-01-05T15:38:56;11.50;99.90
49465;DHT22;35358;49.342;8.802;2023-01-05T15:41:23;11.50;99.90
49465;DHT22;35358;49.342;8.802;2023-01-05T15:43:51;11.40;99.90
49465;DHT22;35358;49.342;8.802;2023-01-05T15:46:19;11.40;99.90
49465;DHT22;35358;49.342;8.802;2023-01-05T15:48:50;11.50;99.90
49465;DHT22;35358;49.342;8.802;2023-01-05T15:51:46;11.40;99.90
49465;DHT22;35358;49.342;8.802;2023-01-05T15:54:23;11.50;99.90
49465;DHT22;35358;49.342;8.802;2023-01-05T15:56:52;11.50;99.90
49465;DHT22;35358;49.342;8.802;2023-01-05T16:01:46;11.40;99.90
49465;DHT22;35358;49.342;8.802;2023-01-05T16:04:13;11.40;99.90
49465;DHT22;35358;49.342;8.802;2023-01-05T16:06:44;11.40;99.90
49465;DHT22;35358;49.342;8.802;2023-01-05T16:11:55;11.40;99.90
49465;DHT22;35358;49.342;8.802;2023-01-05T16:14:25;11.40;99.90
49465;DHT22;35358;49.342;8.802;2023-01-05T16:17:05;11.40;99.90
49465;DHT22;35358;49.342;8.802;2023-01-05T16:19:41;11.30;99.90
49465;DHT22;35358;49.342;8.802;2023-01-05T16:24:57;11.30;99.90
49465;DHT22;35358;49.342;8.802;2023-01-05T16:27:24;11.30;99.90
49465;DHT22;35358;49.342;8.802;2023-01-05T16:29:50;11.30;99.90
49465;DHT22;35358;49.342;8.802;2023-01-05T16:32:36;11.20;99.90
49465;DHT22;35358;49.342;8.802;2023-01-05T16:38:13;11.20;99.90
49465;DHT22;35358;49.342;8.802;2023-01-05T16:45:51;11.10;99.90
49465;DHT22;35358;49.342;8.802;2023-01-05T16:51:03;11.10;99.90
49465;DHT22;35358;49.342;8.802;2023-01-05T16:53:30;11.10;99.90
49465;DHT22;35358;49.342;8.802;2023-01-05T16:55:56;11.20;99.90
49465;DHT22;35358;49.342;8.802;2023-01-05T17:03:34;11.20;99.90
49465;DHT22;35358;49.342;8.802;2023-01-05T17:06:00;11.20;99.90
49465;DHT22;35358;49.342;8.802;2023-01-05T17:08:27;11.20;99.90
49465;DHT22;35358;49.342;8.802;2023-01-05T17:10:59;11.10;99.90
49465;DHT22;35358;49.342;8.802;2023-01-05T17:13:39;11.10;99.90
49465;DHT22;35358;49.342;8.802;2023-01-05T17:16:05;11.10;99.90
49465;DHT22;35358;49.342;8.802;2023-01-05T17:18:31;11.10;99.90
49465;DHT22;35358;49.342;8.802;2023-01-05T17:20:59;11.10;99.90
49465;DHT22;35358;49.342;8.802;2023-01-05T17:23:37;11.10;99.90
49465;DHT22;35358;49.342;8.802;2023-01-05T17:26:06;11.10;99.90
49465;DHT22;35358;49.342;8.802;2023-01-05T17:28:33;11.10;99.90
49465;DHT22;35358;49.342;8.802;2023-01-05T17:30:58;11.00;99.90
49465;DHT22;35358;49.342;8.802;2023-01-05T17:33:26;11.00;99.90
49465;DHT22;35358;49.342;8.802;2023-01-05T17:35:52;11.00;99.90
49465;DHT22;35358;49.342;8.802;2023-01-05T17:38:18;11.00;99.90
49465;DHT22;35358;49.342;8.802;2023-01-05T17:40:43;11.00;99.90
49465;DHT22;35358;49.342;8.802;2023-01-05T17:43:11;11.00;99.90
49465;DHT22;35358;49.342;8.802;2023-01-05T17:45:39;10.90;99.90
49465;DHT22;35358;49.342;8.802;2023-01-05T17:48:06;10.90;99.90
49465;DHT22;35358;49.342;8.802;2023-01-05T17:50:32;10.90;99.90
49465;DHT22;35358;49.342;8.802;2023-01-05T17:53:02;10.90;99.90
49465;DHT22;35358;49.342;8.802;2023-01-05T17:55:29;10.90;99.90
49465;DHT22;35358;49.342;8.802;2023-01-05T17:58:01;10.90;99.90
49465;DHT22;35358;49.342;8.802;2023-01-05T18:00:31;10.80;99.90
49465;DHT22;35358;49.342;8.802;2023-01-05T18:03:04;10.80;99.90
49465;DHT22;35358;49.342;8.802;2023-01-05T18:05:32;10.80;99.90
49465;DHT22;35358;49.342;8.802;2023-01-05T18:08:00;10.80;99.90
49465;DHT22;35358;49.342;8.802;2023-01-05T18:10:25;10.90;99.90
49465;DHT22;35358;49.342;8.802;2023-01-05T18:12:52;10.90;99.90
49465;DHT22;35358;49.342;8.802;2023-01-05T18:15:18;10.90;99.90
49465;DHT22;35358;49.342;8.802;2023-01-05T18:17:43;10.90;99.90
49465;DHT22;35358;49.342;8.802;2023-01-05T18:20:12;10.80;99.90
49465;DHT22;35358;49.342;8.802;2023-01-05T18:22:40;10.90;99.90
49465;DHT22;35358;49.342;8.802;2023-01-05T18:25:06;10.80;99.90
49465;DHT22;35358;49.342;8.802;2023-01-05T18:27:32;10.90;99.90
49465;DHT22;35358;49.342;8.802;2023-01-05T18:30:00;10.90;99.90
49465;DHT22;35358;49.342;8.802;2023-01-05T18:32:28;10.80;99.90
49465;DHT22;35358;49.342;8.802;2023-01-05T18:34:56;10.80;99.90
49465;DHT22;35358;49.342;8.802;2023-01-05T18:37:22;10.80;99.90
49465;DHT22;35358;49.342;8.802;2023-01-05T18:39:50;10.80;99.90
49465;DHT22;35358;49.342;8.802;2023-01-05T18:42:16;10.80;99.90
49465;DHT22;35358;49.342;8.802;2023-01-05T18:44:46;10.80;99.90
49465;DHT22;35358;49.342;8.802;2023-01-05T18:47:12;10.70;99.90
49465;DHT22;35358;49.342;8.802;2023-01-05T18:49:40;10.70;99.90
49465;DHT22;35358;49.342;8.802;2023-01-05T18:52:05;10.70;99.90
49465;DHT22;35358;49.342;8.802;2023-01-05T18:54:33;10.70;99.90
49465;DHT22;35358;49.342;8.802;2023-01-05T18:56:59;10.70;99.90
49465;DHT22;35358;49.342;8.802;2023-01-05T18:59:24;10.70;99.90
49465;DHT22;35358;49.342;8.802;2023-01-05T19:01:50;10.70;99.90
49465;DHT22;35358;49.342;8.802;2023-01-05T19:04:19;10.70;99.90
49465;DHT22;35358;49.342;8.802;2023-01-05T19:06:46;10.80;99.90
49465;DHT22;35358;49.342;8.802;2023-01-05T19:09:13;10.60;99.90
49465;DHT22;35358;49.342;8.802;2023-01-05T19:11:45;10.50;99.90
49465;DHT22;35358;49.342;8.802;2023-01-05T19:14:12;10.50;99.90
49465;DHT22;35358;49.342;8.802;2023-01-05T19:16:38;10.50;99.90
49465;DHT22;35358;49.342;8.802;2023-01-05T19:19:06;10.40;99.90
49465;DHT22;35358;49.342;8.802;2023-01-05T19:21:37;10.40;99.90
49465;DHT22;35358;49.342;8.802;2023-01-05T19:24:03;10.30;99.90
49465;DHT22;35358;49.342;8.802;2023-01-05T19:26:31;10.30;99.90
49465;DHT22;35358;49.342;8.802;2023-01-05T19:28:58;10.20;99.90